sensor_id;sensor_type;location;lat;lon;timestamp;P1;durP1;ratioP1;P2;durP2;ratioP2
56455;SDS011;42354;53.218;6.564;2023-04-25T00:02:06;25.63;;;4.57;;
56455;SDS011;42354;53.218;6.564;2023-04-25T00:04:33;25.30;;;4.13;;
56455;SDS011;42354;53.218;6.564;2023-04-25T00:06:59;33.60;;;4.93;;
56455;SDS011;42354;53.218;6.564;2023-04-25T00:09:27;24.85;;;4.45;;
56455;SDS011;42354;53.218;6.564;2023-04-25T00:11:52;22.52;;;4.28;;
56455;SDS011;42354;53.218;6.564;2023-04-25T00:14:18;31.35;;;4.93;;
56455;SDS011;42354;53.218;6.564;2023-04-25T00:16:43;22.38;;;5.20;;
56455;SDS011;42354;53.218;6.564;2023-04-25T00:19:09;35.35;;;5.97;;
56455;SDS011;42354;53.218;6.564;2023-04-25T00:21:34;41.22;;;5.28;;
56455;SDS011;42354;53.218;6.564;2023-04-25T00:24:00;28.38;;;4.35;;
56455;SDS011;42354;53.218;6.564;2023-04-25T00:26:26;30.08;;;5.22;;
56455;SDS011;42354;53.218;6.564;2023-04-25T00:28:52;28.88;;;4.80;;
56455;SDS011;42354;53.218;6.564;2023-04-25T00:31:17;17.77;;;3.60;;
56455;SDS011;42354;53.218;6.564;2023-04-25T00:33:43;23.25;;;3.17;;
56455;SDS011;42354;53.218;6.564;2023-04-25T00:36:08;18.00;;;3.00;;
56455;SDS011;42354;53.218;6.564;2023-04-25T00:38:34;21.38;;;3.47;;
56455;SDS011;42354;53.218;6.564;2023-04-25T00:41:00;16.95;;;3.00;;
56455;SDS011;42354;53.218;6.564;2023-04-25T00:43:26;15.43;;;2.60;;
56455;SDS011;42354;53.218;6.564;2023-04-25T00:45:52;16.13;;;2.92;;
56455;SDS011;42354;53.218;6.564;2023-04-25T00:48:18;16.90;;;2.60;;
56455;SDS011;42354;53.218;6.564;2023-04-25T00:50:58;26.70;;;3.63;;
56455;SDS011;42354;53.218;6.564;2023-04-25T00:53:25;23.33;;;3.47;;
56455;SDS011;42354;53.218;6.564;2023-04-25T00:55:51;17.50;;;3.17;;
56455;SDS011;42354;53.218;6.564;2023-04-25T00:58:18;21.02;;;3.42;;
56455;SDS011;42354;53.218;6.564;2023-04-25T01:00:45;21.10;;;2.78;;
56455;SDS011;42354;53.218;6.564;2023-04-25T01:03:11;17.42;;;3.00;;
56455;SDS011;42354;53.218;6.564;2023-04-25T01:05:38;23.80;;;3.55;;
56455;SDS011;42354;53.218;6.564;2023-04-25T01:08:05;20.80;;;3.42;;
56455;SDS011;42354;53.218;6.564;2023-04-25T01:10:30;20.88;;;4.55;;
56455;SDS011;42354;53.218;6.564;2023-04-25T01:12:56;14.73;;;2.25;;
56455;SDS011;42354;53.218;6.564;2023-04-25T01:15:21;11.07;;;2.03;;
56455;SDS011;42354;53.218;6.564;2023-04-25T01:17:47;17.08;;;3.38;;
56455;SDS011;42354;53.218;6.564;2023-04-25T01:20:14;12.85;;;3.47;;
56455;SDS011;42354;53.218;6.564;2023-04-25T01:22:41;11.82;;;2.17;;
56455;SDS011;42354;53.218;6.564;2023-04-25T01:25:07;17.33;;;3.13;;
56455;SDS011;42354;53.218;6.564;2023-04-25T01:27:33;16.98;;;2.75;;
56455;SDS011;42354;53.218;6.564;2023-04-25T01:30:00;11.13;;;3.35;;
56455;SDS011;42354;53.218;6.564;2023-04-25T01:32:26;13.50;;;2.53;;
56455;SDS011;42354;53.218;6.564;2023-04-25T01:34:51;18.25;;;2.85;;
56455;SDS011;42354;53.218;6.564;2023-04-25T01:37:17;12.25;;;1.92;;
56455;SDS011;42354;53.218;6.564;2023-04-25T01:39:43;12.18;;;2.08;;
56455;SDS011;42354;53.218;6.564;2023-04-25T01:42:09;12.88;;;2.42;;
56455;SDS011;42354;53.218;6.564;2023-04-25T01:44:34;15.95;;;2.63;;
56455;SDS011;42354;53.218;6.564;2023-04-25T01:47:00;22.05;;;4.10;;
56455;SDS011;42354;53.218;6.564;2023-04-25T01:49:25;19.08;;;3.00;;
56455;SDS011;42354;53.218;6.564;2023-04-25T01:51:51;16.42;;;3.10;;
56455;SDS011;42354;53.218;6.564;2023-04-25T01:54:16;18.95;;;2.92;;
56455;SDS011;42354;53.218;6.564;2023-04-25T01:56:43;15.77;;;3.22;;
56455;SDS011;42354;53.218;6.564;2023-04-25T01:59:08;14.07;;;3.17;;
56455;SDS011;42354;53.218;6.564;2023-04-25T02:01:34;17.85;;;3.33;;
56455;SDS011;42354;53.218;6.564;2023-04-25T02:03:59;17.25;;;3.17;;
56455;SDS011;42354;53.218;6.564;2023-04-25T02:06:25;22.67;;;3.58;;
56455;SDS011;42354;53.218;6.564;2023-04-25T02:08:50;18.65;;;2.83;;
56455;SDS011;42354;53.218;6.564;2023-04-25T02:11:16;23.55;;;3.15;;
56455;SDS011;42354;53.218;6.564;2023-04-25T02:13:41;18.98;;;3.00;;
56455;SDS011;42354;53.218;6.564;2023-04-25T02:16:06;22.38;;;3.17;;
56455;SDS011;42354;53.218;6.564;2023-04-25T02:18:32;30.08;;;3.28;;
56455;SDS011;42354;53.218;6.564;2023-04-25T02:20:58;25.88;;;3.38;;
56455;SDS011;42354;53.218;6.564;2023-04-25T02:23:24;19.40;;;2.80;;
56455;SDS011;42354;53.218;6.564;2023-04-25T02:25:50;14.88;;;2.85;;
56455;SDS011;42354;53.218;6.564;2023-04-25T02:28:16;23.65;;;3.92;;
56455;SDS011;42354;53.218;6.564;2023-04-25T02:30:41;18.85;;;2.72;;
56455;SDS011;42354;53.218;6.564;2023-04-25T02:33:07;24.20;;;3.53;;
56455;SDS011;42354;53.218;6.564;2023-04-25T02:35:32;14.40;;;2.42;;
56455;SDS011;42354;53.218;6.564;2023-04-25T02:37:57;20.77;;;2.60;;
56455;SDS011;42354;53.218;6.564;2023-04-25T02:40:23;24.38;;;3.17;;
56455;SDS011;42354;53.218;6.564;2023-04-25T02:42:48;24.45;;;2.42;;
56455;SDS011;42354;53.218;6.564;2023-04-25T02:45:13;18.80;;;2.25;;
56455;SDS011;42354;53.218;6.564;2023-04-25T02:47:39;17.13;;;2.78;;
56455;SDS011;42354;53.218;6.564;2023-04-25T02:50:05;18.48;;;2.28;;
56455;SDS011;42354;53.218;6.564;2023-04-25T02:52:31;20.25;;;2.80;;
56455;SDS011;42354;53.218;6.564;2023-04-25T02:54:56;22.10;;;2.75;;
56455;SDS011;42354;53.218;6.564;2023-04-25T02:57:21;13.73;;;2.22;;
56455;SDS011;42354;53.218;6.564;2023-04-25T02:59:47;18.40;;;2.03;;
56455;SDS011;42354;53.218;6.564;2023-04-25T03:02:12;15.82;;;2.45;;
56455;SDS011;42354;53.218;6.564;2023-04-25T03:04:38;20.23;;;2.45;;
56455;SDS011;42354;53.218;6.564;2023-04-25T03:07:03;14.23;;;2.08;;
56455;SDS011;42354;53.218;6.564;2023-04-25T03:09:29;16.27;;;3.13;;
56455;SDS011;42354;53.218;6.564;2023-04-25T03:11:54;9.52;;;2.35;;
56455;SDS011;42354;53.218;6.564;2023-04-25T03:14:20;14.95;;;1.95;;
56455;SDS011;42354;53.218;6.564;2023-04-25T03:16:45;19.58;;;3.13;;
56455;SDS011;42354;53.218;6.564;2023-04-25T03:19:10;18.20;;;2.75;;
56455;SDS011;42354;53.218;6.564;2023-04-25T03:21:36;17.88;;;2.58;;
56455;SDS011;42354;53.218;6.564;2023-04-25T03:24:02;17.00;;;3.03;;
56455;SDS011;42354;53.218;6.564;2023-04-25T03:26:29;13.32;;;1.73;;
56455;SDS011;42354;53.218;6.564;2023-04-25T03:28:54;21.23;;;2.40;;
56455;SDS011;42354;53.218;6.564;2023-04-25T03:31:20;13.60;;;1.90;;
56455;SDS011;42354;53.218;6.564;2023-04-25T03:33:45;13.85;;;2.75;;
56455;SDS011;42354;53.218;6.564;2023-04-25T03:36:11;14.65;;;2.92;;
56455;SDS011;42354;53.218;6.564;2023-04-25T03:38:36;15.85;;;2.20;;
56455;SDS011;42354;53.218;6.564;2023-04-25T03:41:02;20.42;;;2.33;;
56455;SDS011;42354;53.218;6.564;2023-04-25T03:43:27;11.95;;;2.40;;
56455;SDS011;42354;53.218;6.564;2023-04-25T03:45:53;12.23;;;2.45;;
56455;SDS011;42354;53.218;6.564;2023-04-25T03:48:18;16.73;;;2.60;;
56455;SDS011;42354;53.218;6.564;2023-04-25T03:50:46;19.13;;;2.40;;
56455;SDS011;42354;53.218;6.564;2023-04-25T03:53:12;14.77;;;3.05;;
56455;SDS011;42354;53.218;6.564;2023-04-25T03:55:37;15.43;;;2.38;;
56455;SDS011;42354;53.218;6.564;2023-04-25T03:58:03;17.90;;;2.22;;
56455;SDS011;42354;53.218;6.564;2023-04-25T04:00:28;10.30;;;2.15;;
56455;SDS011;42354;53.218;6.564;2023-04-25T04:02:53;16.00;;;2.30;;
56455;SDS011;42354;53.218;6.564;2023-04-25T04:05:19;17.38;;;2.40;;
56455;SDS011;42354;53.218;6.564;2023-04-25T04:07:44;17.27;;;1.92;;
56455;SDS011;42354;53.218;6.564;2023-04-25T04:10:10;13.80;;;2.10;;
56455;SDS011;42354;53.218;6.564;2023-04-25T04:12:36;17.00;;;2.35;;
56455;SDS011;42354;53.218;6.564;2023-04-25T04:15:03;10.93;;;1.77;;
56455;SDS011;42354;53.218;6.564;2023-04-25T04:17:31;19.52;;;2.40;;
56455;SDS011;42354;53.218;6.564;2023-04-25T04:19:57;17.88;;;2.78;;
56455;SDS011;42354;53.218;6.564;2023-04-25T04:22:23;18.63;;;2.92;;
56455;SDS011;42354;53.218;6.564;2023-04-25T04:24:49;16.40;;;2.97;;
56455;SDS011;42354;53.218;6.564;2023-04-25T04:27:15;19.30;;;2.22;;
56455;SDS011;42354;53.218;6.564;2023-04-25T04:29:42;18.63;;;2.97;;
56455;SDS011;42354;53.218;6.564;2023-04-25T04:32:08;11.32;;;1.90;;
56455;SDS011;42354;53.218;6.564;2023-04-25T04:34:33;19.23;;;2.15;;
56455;SDS011;42354;53.218;6.564;2023-04-25T04:36:59;22.60;;;2.78;;
56455;SDS011;42354;53.218;6.564;2023-04-25T04:39:25;13.90;;;2.50;;
56455;SDS011;42354;53.218;6.564;2023-04-25T04:41:50;18.40;;;2.60;;
56455;SDS011;42354;53.218;6.564;2023-04-25T04:44:16;11.50;;;2.50;;
56455;SDS011;42354;53.218;6.564;2023-04-25T04:46:41;15.18;;;2.85;;
56455;SDS011;42354;53.218;6.564;2023-04-25T04:49:11;20.17;;;2.08;;
56455;SDS011;42354;53.218;6.564;2023-04-25T04:51:37;23.40;;;2.70;;
56455;SDS011;42354;53.218;6.564;2023-04-25T04:54:03;17.65;;;2.05;;
56455;SDS011;42354;53.218;6.564;2023-04-25T04:56:29;19.15;;;2.50;;
56455;SDS011;42354;53.218;6.564;2023-04-25T04:58:56;24.08;;;2.47;;
56455;SDS011;42354;53.218;6.564;2023-04-25T05:01:25;12.82;;;1.98;;
56455;SDS011;42354;53.218;6.564;2023-04-25T05:03:51;12.57;;;2.88;;
56455;SDS011;42354;53.218;6.564;2023-04-25T05:06:17;16.48;;;1.90;;
56455;SDS011;42354;53.218;6.564;2023-04-25T05:08:43;10.75;;;2.20;;
56455;SDS011;42354;53.218;6.564;2023-04-25T05:11:09;12.75;;;1.52;;
56455;SDS011;42354;53.218;6.564;2023-04-25T05:13:34;10.57;;;1.52;;
56455;SDS011;42354;53.218;6.564;2023-04-25T05:16:00;10.68;;;1.58;;
56455;SDS011;42354;53.218;6.564;2023-04-25T05:18:25;5.95;;;1.30;;
56455;SDS011;42354;53.218;6.564;2023-04-25T05:20:51;9.70;;;1.50;;
56455;SDS011;42354;53.218;6.564;2023-04-25T05:23:16;7.07;;;1.00;;
56455;SDS011;42354;53.218;6.564;2023-04-25T05:25:41;7.00;;;1.10;;
56455;SDS011;42354;53.218;6.564;2023-04-25T05:28:07;7.45;;;1.40;;
56455;SDS011;42354;53.218;6.564;2023-04-25T05:30:33;7.78;;;1.20;;
56455;SDS011;42354;53.218;6.564;2023-04-25T05:32:59;7.10;;;1.35;;
56455;SDS011;42354;53.218;6.564;2023-04-25T05:35:26;4.38;;;1.13;;
56455;SDS011;42354;53.218;6.564;2023-04-25T05:37:51;10.85;;;1.50;;
56455;SDS011;42354;53.218;6.564;2023-04-25T05:40:17;6.80;;;1.00;;
56455;SDS011;42354;53.218;6.564;2023-04-25T05:42:42;6.68;;;1.13;;
56455;SDS011;42354;53.218;6.564;2023-04-25T05:45:08;10.02;;;1.83;;
56455;SDS011;42354;53.218;6.564;2023-04-25T05:47:33;9.70;;;1.45;;
56455;SDS011;42354;53.218;6.564;2023-04-25T05:49:59;9.15;;;1.33;;
56455;SDS011;42354;53.218;6.564;2023-04-25T05:52:24;9.60;;;1.40;;
56455;SDS011;42354;53.218;6.564;2023-04-25T05:54:50;13.43;;;1.65;;
56455;SDS011;42354;53.218;6.564;2023-04-25T05:57:25;14.88;;;1.42;;
56455;SDS011;42354;53.218;6.564;2023-04-25T05:59:51;9.75;;;1.50;;
56455;SDS011;42354;53.218;6.564;2023-04-25T06:02:18;12.90;;;1.90;;
56455;SDS011;42354;53.218;6.564;2023-04-25T06:04:45;13.27;;;1.27;;
56455;SDS011;42354;53.218;6.564;2023-04-25T06:07:11;11.18;;;1.40;;
56455;SDS011;42354;53.218;6.564;2023-04-25T06:09:36;9.57;;;1.40;;
56455;SDS011;42354;53.218;6.564;2023-04-25T06:12:03;11.57;;;1.45;;
56455;SDS011;42354;53.218;6.564;2023-04-25T06:14:29;5.00;;;1.70;;
56455;SDS011;42354;53.218;6.564;2023-04-25T06:16:55;6.65;;;1.15;;
56455;SDS011;42354;53.218;6.564;2023-04-25T06:19:20;7.80;;;1.60;;
56455;SDS011;42354;53.218;6.564;2023-04-25T06:21:46;8.68;;;1.77;;
56455;SDS011;42354;53.218;6.564;2023-04-25T06:24:11;12.98;;;1.70;;
56455;SDS011;42354;53.218;6.564;2023-04-25T06:26:37;6.57;;;1.75;;
56455;SDS011;42354;53.218;6.564;2023-04-25T06:29:02;9.85;;;1.58;;
56455;SDS011;42354;53.218;6.564;2023-04-25T06:31:27;9.65;;;1.90;;
56455;SDS011;42354;53.218;6.564;2023-04-25T06:33:54;10.68;;;1.50;;
56455;SDS011;42354;53.218;6.564;2023-04-25T06:36:20;10.85;;;1.95;;
56455;SDS011;42354;53.218;6.564;2023-04-25T06:38:50;11.98;;;1.70;;
56455;SDS011;42354;53.218;6.564;2023-04-25T06:41:16;18.98;;;1.95;;
56455;SDS011;42354;53.218;6.564;2023-04-25T06:43:41;22.08;;;2.22;;
56455;SDS011;42354;53.218;6.564;2023-04-25T06:46:07;11.23;;;1.65;;
56455;SDS011;42354;53.218;6.564;2023-04-25T06:48:32;11.45;;;1.98;;
56455;SDS011;42354;53.218;6.564;2023-04-25T06:50:57;16.08;;;2.00;;
56455;SDS011;42354;53.218;6.564;2023-04-25T06:53:23;15.23;;;2.05;;
56455;SDS011;42354;53.218;6.564;2023-04-25T06:55:48;13.43;;;1.88;;
56455;SDS011;42354;53.218;6.564;2023-04-25T06:58:13;12.57;;;1.60;;
56455;SDS011;42354;53.218;6.564;2023-04-25T07:00:39;10.70;;;1.70;;
56455;SDS011;42354;53.218;6.564;2023-04-25T07:03:04;11.88;;;2.10;;
56455;SDS011;42354;53.218;6.564;2023-04-25T07:05:30;11.82;;;1.73;;
56455;SDS011;42354;53.218;6.564;2023-04-25T07:07:55;5.50;;;1.05;;
56455;SDS011;42354;53.218;6.564;2023-04-25T07:10:21;9.70;;;1.20;;
56455;SDS011;42354;53.218;6.564;2023-04-25T07:12:46;10.75;;;1.48;;
56455;SDS011;42354;53.218;6.564;2023-04-25T07:15:11;10.38;;;1.30;;
56455;SDS011;42354;53.218;6.564;2023-04-25T07:17:37;7.47;;;1.90;;
56455;SDS011;42354;53.218;6.564;2023-04-25T07:20:03;10.60;;;1.17;;
56455;SDS011;42354;53.218;6.564;2023-04-25T07:22:31;10.07;;;1.35;;
56455;SDS011;42354;53.218;6.564;2023-04-25T07:24:57;8.20;;;1.20;;
56455;SDS011;42354;53.218;6.564;2023-04-25T07:27:22;8.43;;;1.55;;
56455;SDS011;42354;53.218;6.564;2023-04-25T07:29:47;6.07;;;1.25;;
56455;SDS011;42354;53.218;6.564;2023-04-25T07:32:13;8.35;;;1.15;;
56455;SDS011;42354;53.218;6.564;2023-04-25T07:34:39;14.80;;;1.35;;
56455;SDS011;42354;53.218;6.564;2023-04-25T07:37:04;8.73;;;1.27;;
56455;SDS011;42354;53.218;6.564;2023-04-25T07:39:30;8.40;;;1.50;;
56455;SDS011;42354;53.218;6.564;2023-04-25T07:41:56;9.30;;;1.20;;
56455;SDS011;42354;53.218;6.564;2023-04-25T07:44:23;11.88;;;1.70;;
56455;SDS011;42354;53.218;6.564;2023-04-25T07:46:49;5.95;;;1.02;;
56455;SDS011;42354;53.218;6.564;2023-04-25T07:49:14;7.75;;;1.20;;
56455;SDS011;42354;53.218;6.564;2023-04-25T07:51:40;4.15;;;1.05;;
56455;SDS011;42354;53.218;6.564;2023-04-25T07:54:06;7.07;;;1.23;;
56455;SDS011;42354;53.218;6.564;2023-04-25T07:56:31;8.07;;;1.20;;
56455;SDS011;42354;53.218;6.564;2023-04-25T07:58:57;4.43;;;0.90;;
56455;SDS011;42354;53.218;6.564;2023-04-25T08:01:23;11.02;;;1.48;;
56455;SDS011;42354;53.218;6.564;2023-04-25T08:03:48;15.70;;;1.65;;
56455;SDS011;42354;53.218;6.564;2023-04-25T08:06:14;9.10;;;1.00;;
56455;SDS011;42354;53.218;6.564;2023-04-25T08:08:40;18.08;;;3.05;;
56455;SDS011;42354;53.218;6.564;2023-04-25T08:11:06;3.92;;;0.93;;
56455;SDS011;42354;53.218;6.564;2023-04-25T08:13:31;6.80;;;1.10;;
56455;SDS011;42354;53.218;6.564;2023-04-25T08:15:57;8.23;;;1.35;;
56455;SDS011;42354;53.218;6.564;2023-04-25T08:18:22;4.63;;;0.90;;
56455;SDS011;42354;53.218;6.564;2023-04-25T08:20:47;7.18;;;0.75;;
56455;SDS011;42354;53.218;6.564;2023-04-25T08:23:13;6.88;;;0.77;;
56455;SDS011;42354;53.218;6.564;2023-04-25T08:25:39;5.35;;;1.15;;
56455;SDS011;42354;53.218;6.564;2023-04-25T08:28:05;4.00;;;0.90;;
56455;SDS011;42354;53.218;6.564;2023-04-25T08:30:31;6.13;;;0.70;;
56455;SDS011;42354;53.218;6.564;2023-04-25T08:32:56;2.65;;;0.70;;
56455;SDS011;42354;53.218;6.564;2023-04-25T08:35:22;5.45;;;1.15;;
56455;SDS011;42354;53.218;6.564;2023-04-25T08:37:48;8.82;;;1.05;;
56455;SDS011;42354;53.218;6.564;2023-04-25T08:40:14;5.13;;;0.70;;
56455;SDS011;42354;53.218;6.564;2023-04-25T08:42:43;3.35;;;0.63;;
56455;SDS011;42354;53.218;6.564;2023-04-25T08:45:10;6.32;;;0.85;;
56455;SDS011;42354;53.218;6.564;2023-04-25T08:47:37;8.18;;;1.10;;
56455;SDS011;42354;53.218;6.564;2023-04-25T08:50:04;6.30;;;0.98;;
56455;SDS011;42354;53.218;6.564;2023-04-25T08:52:33;6.40;;;0.82;;
56455;SDS011;42354;53.218;6.564;2023-04-25T08:55:02;7.25;;;1.20;;
56455;SDS011;42354;53.218;6.564;2023-04-25T08:57:30;7.70;;;1.02;;
56455;SDS011;42354;53.218;6.564;2023-04-25T08:59:56;9.25;;;1.23;;
56455;SDS011;42354;53.218;6.564;2023-04-25T09:02:23;11.27;;;1.35;;
56455;SDS011;42354;53.218;6.564;2023-04-25T09:04:49;10.70;;;1.58;;
56455;SDS011;42354;53.218;6.564;2023-04-25T09:07:15;9.63;;;1.55;;
56455;SDS011;42354;53.218;6.564;2023-04-25T09:09:43;9.40;;;1.33;;
56455;SDS011;42354;53.218;6.564;2023-04-25T09:12:09;17.63;;;2.03;;
56455;SDS011;42354;53.218;6.564;2023-04-25T09:14:35;3.47;;;1.00;;
56455;SDS011;42354;53.218;6.564;2023-04-25T09:17:01;5.60;;;0.93;;
56455;SDS011;42354;53.218;6.564;2023-04-25T09:19:31;6.13;;;1.40;;
56455;SDS011;42354;53.218;6.564;2023-04-25T09:22:00;8.18;;;1.30;;
56455;SDS011;42354;53.218;6.564;2023-04-25T09:24:33;12.63;;;2.40;;
56455;SDS011;42354;53.218;6.564;2023-04-25T09:27:04;9.00;;;1.50;;
56455;SDS011;42354;53.218;6.564;2023-04-25T09:29:34;9.45;;;1.45;;
56455;SDS011;42354;53.218;6.564;2023-04-25T09:32:18;12.40;;;1.95;;
56455;SDS011;42354;53.218;6.564;2023-04-25T09:34:51;10.13;;;1.50;;
56455;SDS011;42354;53.218;6.564;2023-04-25T09:39:45;14.70;;;2.13;;
56455;SDS011;42354;53.218;6.564;2023-04-25T09:42:13;14.43;;;1.60;;
56455;SDS011;42354;53.218;6.564;2023-04-25T09:44:43;4.68;;;1.40;;
56455;SDS011;42354;53.218;6.564;2023-04-25T09:47:13;8.68;;;1.60;;
56455;SDS011;42354;53.218;6.564;2023-04-25T09:49:40;7.82;;;1.33;;
56455;SDS011;42354;53.218;6.564;2023-04-25T09:52:07;9.02;;;1.42;;
56455;SDS011;42354;53.218;6.564;2023-04-25T09:54:33;9.07;;;1.30;;
56455;SDS011;42354;53.218;6.564;2023-04-25T09:57:00;7.97;;;1.58;;
56455;SDS011;42354;53.218;6.564;2023-04-25T09:59:32;19.30;;;2.13;;
56455;SDS011;42354;53.218;6.564;2023-04-25T10:02:03;9.68;;;1.95;;
56455;SDS011;42354;53.218;6.564;2023-04-25T10:04:29;11.10;;;1.92;;
56455;SDS011;42354;53.218;6.564;2023-04-25T10:06:57;11.77;;;1.92;;
56455;SDS011;42354;53.218;6.564;2023-04-25T10:09:25;10.43;;;2.10;;
56455;SDS011;42354;53.218;6.564;2023-04-25T10:11:51;10.43;;;1.67;;
56455;SDS011;42354;53.218;6.564;2023-04-25T10:14:17;15.20;;;2.17;;
56455;SDS011;42354;53.218;6.564;2023-04-25T10:16:43;12.10;;;1.73;;
56455;SDS011;42354;53.218;6.564;2023-04-25T10:19:10;10.15;;;1.45;;
56455;SDS011;42354;53.218;6.564;2023-04-25T10:21:36;12.65;;;1.90;;
56455;SDS011;42354;53.218;6.564;2023-04-25T10:24:10;12.65;;;1.73;;
56455;SDS011;42354;53.218;6.564;2023-04-25T10:26:35;7.78;;;1.70;;
56455;SDS011;42354;53.218;6.564;2023-04-25T10:29:01;11.88;;;2.00;;
56455;SDS011;42354;53.218;6.564;2023-04-25T10:31:29;18.67;;;2.10;;
56455;SDS011;42354;53.218;6.564;2023-04-25T10:33:55;11.02;;;1.33;;
56455;SDS011;42354;53.218;6.564;2023-04-25T10:36:22;11.65;;;1.67;;
56455;SDS011;42354;53.218;6.564;2023-04-25T10:38:49;15.32;;;1.60;;
56455;SDS011;42354;53.218;6.564;2023-04-25T10:41:19;11.35;;;1.95;;
56455;SDS011;42354;53.218;6.564;2023-04-25T10:43:46;8.30;;;1.50;;
56455;SDS011;42354;53.218;6.564;2023-04-25T10:46:16;7.97;;;1.67;;
56455;SDS011;42354;53.218;6.564;2023-04-25T10:48:49;12.70;;;2.42;;
56455;SDS011;42354;53.218;6.564;2023-04-25T10:53:46;11.38;;;1.38;;
56455;SDS011;42354;53.218;6.564;2023-04-25T10:56:22;7.30;;;1.30;;
56455;SDS011;42354;53.218;6.564;2023-04-25T10:58:48;6.93;;;1.27;;
56455;SDS011;42354;53.218;6.564;2023-04-25T11:01:15;9.75;;;1.90;;
56455;SDS011;42354;53.218;6.564;2023-04-25T11:03:44;12.20;;;1.55;;
56455;SDS011;42354;53.218;6.564;2023-04-25T11:06:23;11.48;;;2.05;;
56455;SDS011;42354;53.218;6.564;2023-04-25T11:08:54;8.57;;;1.60;;
56455;SDS011;42354;53.218;6.564;2023-04-25T11:11:20;7.35;;;1.10;;
56455;SDS011;42354;53.218;6.564;2023-04-25T11:13:48;7.80;;;1.52;;
56455;SDS011;42354;53.218;6.564;2023-04-25T11:16:15;5.75;;;1.17;;
56455;SDS011;42354;53.218;6.564;2023-04-25T11:18:41;7.85;;;1.20;;
56455;SDS011;42354;53.218;6.564;2023-04-25T11:21:07;10.63;;;1.58;;
56455;SDS011;42354;53.218;6.564;2023-04-25T11:23:33;6.90;;;1.85;;
56455;SDS011;42354;53.218;6.564;2023-04-25T11:25:58;11.38;;;1.65;;
56455;SDS011;42354;53.218;6.564;2023-04-25T11:28:26;5.45;;;1.45;;
56455;SDS011;42354;53.218;6.564;2023-04-25T11:30:51;5.22;;;1.13;;
56455;SDS011;42354;53.218;6.564;2023-04-25T11:33:17;9.25;;;2.00;;
56455;SDS011;42354;53.218;6.564;2023-04-25T11:35:43;7.05;;;1.42;;
56455;SDS011;42354;53.218;6.564;2023-04-25T11:38:08;6.07;;;1.50;;
56455;SDS011;42354;53.218;6.564;2023-04-25T11:40:35;9.75;;;1.85;;
56455;SDS011;42354;53.218;6.564;2023-04-25T11:43:01;7.53;;;1.67;;
56455;SDS011;42354;53.218;6.564;2023-04-25T11:45:26;5.65;;;1.20;;
56455;SDS011;42354;53.218;6.564;2023-04-25T11:47:53;9.00;;;1.30;;
56455;SDS011;42354;53.218;6.564;2023-04-25T11:50:19;8.57;;;1.33;;
56455;SDS011;42354;53.218;6.564;2023-04-25T11:52:45;6.53;;;1.73;;
56455;SDS011;42354;53.218;6.564;2023-04-25T11:55:16;6.18;;;1.23;;
56455;SDS011;42354;53.218;6.564;2023-04-25T11:57:53;11.30;;;1.55;;
56455;SDS011;42354;53.218;6.564;2023-04-25T12:00:20;7.85;;;1.20;;
56455;SDS011;42354;53.218;6.564;2023-04-25T12:02:50;11.05;;;2.15;;
56455;SDS011;42354;53.218;6.564;2023-04-25T12:05:17;9.77;;;1.80;;
56455;SDS011;42354;53.218;6.564;2023-04-25T12:07:43;10.55;;;1.83;;
56455;SDS011;42354;53.218;6.564;2023-04-25T12:10:11;12.30;;;1.95;;
56455;SDS011;42354;53.218;6.564;2023-04-25T12:12:38;5.00;;;1.13;;
56455;SDS011;42354;53.218;6.564;2023-04-25T12:15:11;8.73;;;1.50;;
56455;SDS011;42354;53.218;6.564;2023-04-25T12:17:44;7.00;;;1.38;;
56455;SDS011;42354;53.218;6.564;2023-04-25T12:20:17;12.93;;;1.33;;
56455;SDS011;42354;53.218;6.564;2023-04-25T12:22:51;9.75;;;1.88;;
56455;SDS011;42354;53.218;6.564;2023-04-25T12:31:00;8.00;;;1.08;;
56455;SDS011;42354;53.218;6.564;2023-04-25T12:33:36;7.72;;;1.52;;
56455;SDS011;42354;53.218;6.564;2023-04-25T12:36:03;5.80;;;1.15;;
56455;SDS011;42354;53.218;6.564;2023-04-25T12:38:37;6.22;;;1.30;;
56455;SDS011;42354;53.218;6.564;2023-04-25T12:41:05;10.65;;;1.60;;
56455;SDS011;42354;53.218;6.564;2023-04-25T12:43:30;5.38;;;1.35;;
56455;SDS011;42354;53.218;6.564;2023-04-25T12:45:56;8.75;;;1.70;;
56455;SDS011;42354;53.218;6.564;2023-04-25T12:48:22;10.55;;;1.60;;
56455;SDS011;42354;53.218;6.564;2023-04-25T12:50:48;8.13;;;1.40;;
56455;SDS011;42354;53.218;6.564;2023-04-25T12:53:21;6.10;;;1.63;;
56455;SDS011;42354;53.218;6.564;2023-04-25T12:55:49;16.67;;;1.50;;
56455;SDS011;42354;53.218;6.564;2023-04-25T12:58:15;6.70;;;1.40;;
56455;SDS011;42354;53.218;6.564;2023-04-25T13:00:41;7.53;;;1.40;;
56455;SDS011;42354;53.218;6.564;2023-04-25T13:03:07;15.25;;;1.50;;
56455;SDS011;42354;53.218;6.564;2023-04-25T13:05:33;7.72;;;1.52;;
56455;SDS011;42354;53.218;6.564;2023-04-25T13:07:58;9.90;;;2.30;;
56455;SDS011;42354;53.218;6.564;2023-04-25T13:10:24;9.38;;;2.13;;
56455;SDS011;42354;53.218;6.564;2023-04-25T13:12:50;7.80;;;1.40;;
56455;SDS011;42354;53.218;6.564;2023-04-25T13:15:15;7.85;;;1.50;;
56455;SDS011;42354;53.218;6.564;2023-04-25T13:17:41;7.95;;;1.88;;
56455;SDS011;42354;53.218;6.564;2023-04-25T13:20:07;11.32;;;1.98;;
56455;SDS011;42354;53.218;6.564;2023-04-25T13:22:35;23.42;;;2.35;;
56455;SDS011;42354;53.218;6.564;2023-04-25T13:25:03;7.60;;;1.77;;
56455;SDS011;42354;53.218;6.564;2023-04-25T13:27:29;8.35;;;1.70;;
56455;SDS011;42354;53.218;6.564;2023-04-25T13:29:55;6.15;;;1.17;;
56455;SDS011;42354;53.218;6.564;2023-04-25T13:32:20;11.60;;;1.80;;
56455;SDS011;42354;53.218;6.564;2023-04-25T13:34:46;9.30;;;2.10;;
56455;SDS011;42354;53.218;6.564;2023-04-25T13:37:11;11.75;;;1.50;;
56455;SDS011;42354;53.218;6.564;2023-04-25T13:39:36;16.92;;;1.85;;
56455;SDS011;42354;53.218;6.564;2023-04-25T13:42:02;9.02;;;1.88;;
56455;SDS011;42354;53.218;6.564;2023-04-25T13:44:28;9.82;;;1.60;;
56455;SDS011;42354;53.218;6.564;2023-04-25T13:46:53;12.52;;;1.65;;
56455;SDS011;42354;53.218;6.564;2023-04-25T13:49:18;11.13;;;1.50;;
56455;SDS011;42354;53.218;6.564;2023-04-25T13:51:44;7.53;;;1.88;;
56455;SDS011;42354;53.218;6.564;2023-04-25T13:54:10;5.75;;;1.40;;
56455;SDS011;42354;53.218;6.564;2023-04-25T13:56:35;4.88;;;0.90;;
56455;SDS011;42354;53.218;6.564;2023-04-25T13:59:01;6.03;;;1.10;;
56455;SDS011;42354;53.218;6.564;2023-04-25T14:01:26;9.20;;;1.65;;
56455;SDS011;42354;53.218;6.564;2023-04-25T14:03:52;9.02;;;1.88;;
56455;SDS011;42354;53.218;6.564;2023-04-25T14:06:18;7.30;;;1.55;;
56455;SDS011;42354;53.218;6.564;2023-04-25T14:08:47;12.57;;;2.20;;
56455;SDS011;42354;53.218;6.564;2023-04-25T14:11:13;9.65;;;1.42;;
56455;SDS011;42354;53.218;6.564;2023-04-25T14:13:39;7.95;;;1.70;;
56455;SDS011;42354;53.218;6.564;2023-04-25T14:16:04;14.57;;;1.70;;
56455;SDS011;42354;53.218;6.564;2023-04-25T14:18:30;9.55;;;2.15;;
56455;SDS011;42354;53.218;6.564;2023-04-25T14:20:55;7.05;;;1.60;;
56455;SDS011;42354;53.218;6.564;2023-04-25T14:23:21;6.70;;;1.20;;
56455;SDS011;42354;53.218;6.564;2023-04-25T14:25:46;8.32;;;1.40;;
56455;SDS011;42354;53.218;6.564;2023-04-25T14:28:12;6.88;;;1.30;;
56455;SDS011;42354;53.218;6.564;2023-04-25T14:30:37;8.85;;;1.17;;
56455;SDS011;42354;53.218;6.564;2023-04-25T14:33:03;9.23;;;1.90;;
56455;SDS011;42354;53.218;6.564;2023-04-25T14:35:28;5.65;;;1.17;;
56455;SDS011;42354;53.218;6.564;2023-04-25T14:37:54;6.20;;;1.25;;
56455;SDS011;42354;53.218;6.564;2023-04-25T14:40:19;7.78;;;1.58;;
56455;SDS011;42354;53.218;6.564;2023-04-25T14:42:47;9.68;;;1.83;;
56455;SDS011;42354;53.218;6.564;2023-04-25T14:45:13;8.98;;;1.73;;
56455;SDS011;42354;53.218;6.564;2023-04-25T14:47:38;6.88;;;1.30;;